METAR Data
IDs: Format: Raw Decoded Include TAF

Data at: 1447 UTC 25 Jan 2020

METAR for:KBWI (Baltimore-Washington, MD, US)
Text:KBWI 251430Z 33003KT 6SM -RA BR SCT008 BKN040 OVC080 08/07 A2980 RMK AO2 RAB1355 P0002 T00830067
Temperature: 8.3°C ( 47°F)
Dewpoint: 6.7°C ( 44°F) [RH = 90%]
Pressure (altimeter):29.80 inches Hg (1009.2 mb)
Winds:from the NNW (330 degrees) at 3 MPH (3 knots; 1.5 m/s)
Visibility: 6 sm ( 10 km)
Ceiling:4000 feet AGL
Clouds: scattered clouds at 800 feet AGL, broken clouds at 4000 feet AGL, overcast cloud deck at 8000 feet AGL
Weather:-RA BR (light rain, mist)